East Spencer, North Carolina
Current Conditions -  °F | °C
As of 4:35 PM on Saturday 20 Dec 2014 (Local Time) from KRUQ Reporting Station
Overcast Overcast  
Wind Chill: 40°   Ceiling: 7500
Heat Index: 43°   Visibility: 10mi
Dew Point: 33°   Wind: 5mph
Humidity: 68%   Direction: 80°E
Pressure: 30.21"   Gusts: NA
Location:  35.68°N, 80.43°W
Report Text: KRUQ 202135Z AUTO 08004KT 10SM SCT026 OVC075 06/01 A3021 RMK AO2 T00620007
Loading
Personal Weather Stations






























Interactive Weather Map New forecast layout! Learn more

10-Day Weather Forecast

Advertisements
Track Severe Weather on mobile